createdAt,value
2017-10-11T00:00:02.790Z,14.3
2017-10-11T00:05:02.614Z,14.1
2017-10-11T00:10:03.169Z,14.1
2017-10-11T00:15:02.700Z,14.1
2017-10-11T00:20:03.296Z,14.1
2017-10-11T00:25:02.663Z,14.1
2017-10-11T00:30:03.243Z,14.1
2017-10-11T00:35:02.790Z,14.0
2017-10-11T00:40:02.408Z,14.0
2017-10-11T00:45:03.003Z,14.0
2017-10-11T00:50:02.441Z,13.8
2017-10-11T00:55:02.859Z,14.0
2017-10-11T01:00:03.263Z,14.0
2017-10-11T01:05:02.730Z,14.0
2017-10-11T01:10:03.367Z,13.8
2017-10-11T01:15:02.879Z,13.8
2017-10-11T01:20:03.354Z,13.8
2017-10-11T01:25:02.726Z,13.6
2017-10-11T01:30:03.317Z,13.8
2017-10-11T01:35:02.593Z,13.6
2017-10-11T01:40:03.091Z,13.6
2017-10-11T01:45:02.679Z,13.6
2017-10-11T01:50:03.251Z,13.6
2017-10-11T01:55:02.615Z,13.6
2017-10-11T02:00:03.212Z,13.6
2017-10-11T02:05:02.699Z,13.6
2017-10-11T02:10:03.303Z,13.6
2017-10-11T02:15:02.792Z,13.6
2017-10-11T02:20:03.342Z,13.6
2017-10-11T02:25:02.870Z,13.6
2017-10-11T02:30:03.343Z,13.6
2017-10-11T02:35:02.728Z,13.6
2017-10-11T02:40:03.493Z,13.6
2017-10-11T02:45:03.043Z,13.6
2017-10-11T02:50:02.681Z,13.6
2017-10-11T02:55:03.254Z,13.6
2017-10-11T03:00:02.806Z,13.6
2017-10-11T03:05:02.406Z,13.6
2017-10-11T03:10:02.888Z,13.6
2017-10-11T03:15:02.513Z,13.6
2017-10-11T03:20:02.932Z,13.6
2017-10-11T03:25:02.426Z,13.6
2017-10-11T03:30:03.000Z,13.6
2017-10-11T03:35:02.452Z,13.5
2017-10-11T03:40:02.905Z,13.6
2017-10-11T03:45:02.425Z,13.5
2017-10-11T03:50:02.957Z,13.3
2017-10-11T03:55:03.386Z,13.3
2017-10-11T04:00:02.917Z,13.3
2017-10-11T04:05:02.499Z,13.1
2017-10-11T04:10:03.020Z,13.1
2017-10-11T04:15:02.573Z,13.1
2017-10-11T04:20:03.019Z,13.1
2017-10-11T04:25:02.418Z,13.1
2017-10-11T04:30:02.671Z,13.1
2017-10-11T04:35:03.236Z,13.1
2017-10-11T04:40:02.584Z,13.1
2017-10-11T04:45:03.175Z,13.1
2017-10-11T04:50:02.504Z,13.3
2017-10-11T04:55:02.872Z,13.1
2017-10-11T05:00:03.301Z,13.1
2017-10-11T05:05:02.811Z,13.1
2017-10-11T05:10:03.378Z,13.1
2017-10-11T05:15:02.760Z,13.3
2017-10-11T05:20:03.357Z,13.3
2017-10-11T05:25:02.763Z,13.1
2017-10-11T05:30:03.366Z,13.1
2017-10-11T05:35:02.728Z,13.1
2017-10-11T05:40:03.218Z,13.1
2017-10-11T05:45:02.570Z,13.3
2017-10-11T05:50:02.966Z,13.1
2017-10-11T05:55:02.555Z,13.3
2017-10-11T06:00:03.070Z,13.3
2017-10-11T06:05:02.677Z,13.3
2017-10-11T06:10:03.194Z,13.3
2017-10-11T06:15:02.706Z,13.3
2017-10-11T06:20:03.337Z,13.3
2017-10-11T06:25:02.923Z,13.3
2017-10-11T06:30:02.497Z,13.5
2017-10-11T06:35:02.844Z,13.3
2017-10-11T06:40:03.343Z,13.5
2017-10-11T06:45:02.670Z,13.5
2017-10-11T06:50:03.237Z,13.6
2017-10-11T06:55:02.627Z,13.6
2017-10-11T07:00:03.007Z,13.6
2017-10-11T07:05:02.570Z,13.6
2017-10-11T07:10:03.139Z,13.6
2017-10-11T07:15:02.651Z,13.6
2017-10-11T07:20:03.147Z,13.6
2017-10-11T07:25:02.773Z,13.8
2017-10-11T07:30:03.128Z,13.8
2017-10-11T07:35:02.745Z,14.0
2017-10-11T07:40:03.137Z,14.0
2017-10-11T07:45:02.678Z,14.0
2017-10-11T07:50:03.222Z,14.0
2017-10-11T07:55:02.743Z,14.3
2017-10-11T08:00:03.160Z,14.3
2017-10-11T08:05:02.510Z,14.5
2017-10-11T08:10:02.999Z,14.3
2017-10-11T08:15:02.568Z,14.5
2017-10-11T08:20:03.099Z,14.5
2017-10-11T08:25:02.435Z,14.8
2017-10-11T08:30:02.998Z,14.8
2017-10-11T08:35:03.364Z,14.8
2017-10-11T08:40:02.898Z,14.8
2017-10-11T08:45:02.525Z,14.6
2017-10-11T08:50:03.072Z,14.6
2017-10-11T08:55:02.551Z,14.6
2017-10-11T09:00:02.907Z,14.8
2017-10-11T09:05:02.522Z,14.6
2017-10-11T09:10:02.944Z,14.8
2017-10-11T09:15:02.443Z,14.8
2017-10-11T09:20:02.852Z,15.0
2017-10-11T09:25:03.350Z,15.1
2017-10-11T09:30:02.917Z,15.0
2017-10-11T09:35:02.435Z,15.0
2017-10-11T09:40:03.114Z,15.1
2017-10-11T09:45:02.479Z,15.1
2017-10-11T09:50:02.895Z,15.1
2017-10-11T09:55:02.526Z,15.1
2017-10-11T10:00:03.012Z,15.3
2017-10-11T10:05:02.484Z,15.6
2017-10-11T10:10:03.145Z,15.6
2017-10-11T10:15:02.554Z,15.6
2017-10-11T10:20:02.933Z,15.8
2017-10-11T10:25:02.474Z,15.8
2017-10-11T10:30:03.010Z,16.0
2017-10-11T10:35:02.530Z,16.2
2017-10-11T10:40:02.928Z,16.2
2017-10-11T10:45:03.384Z,15.8
2017-10-11T10:50:02.924Z,16.0
2017-10-11T10:55:03.354Z,16.0
2017-10-11T11:00:02.947Z,16.2
2017-10-11T11:05:02.534Z,16.2
2017-10-11T11:10:03.026Z,15.8
2017-10-11T11:15:02.474Z,15.8
2017-10-11T11:20:02.953Z,15.8
2017-10-11T11:25:02.387Z,15.8
2017-10-11T11:30:02.886Z,15.8
2017-10-11T11:35:02.453Z,15.8
2017-10-11T11:40:03.061Z,15.8
2017-10-11T11:45:02.634Z,15.8
2017-10-11T11:50:03.265Z,15.8
2017-10-11T11:55:02.804Z,15.8
2017-10-11T12:00:03.227Z,15.8
2017-10-11T12:05:02.612Z,15.8
2017-10-11T12:10:03.135Z,15.8
2017-10-11T12:15:02.462Z,15.8
2017-10-11T12:20:02.919Z,16.0
2017-10-11T12:25:03.353Z,16.0
2017-10-11T12:30:02.757Z,16.2
2017-10-11T12:35:03.257Z,16.2
2017-10-11T12:40:02.819Z,16.2
2017-10-11T12:45:03.184Z,16.2
2017-10-11T12:50:02.580Z,16.2
2017-10-11T12:55:02.981Z,16.0
2017-10-11T13:00:03.277Z,16.2
2017-10-11T13:05:02.734Z,15.8
2017-10-11T13:10:03.220Z,15.8
2017-10-11T13:15:02.704Z,15.8
2017-10-11T13:20:03.358Z,15.8
2017-10-11T13:25:02.822Z,15.8
2017-10-11T13:30:03.334Z,15.8
2017-10-11T13:35:02.862Z,15.8
2017-10-11T13:40:03.291Z,15.8
2017-10-11T13:45:02.899Z,15.6
2017-10-11T13:50:02.481Z,15.6
2017-10-11T13:55:03.007Z,15.5
2017-10-11T14:00:02.655Z,15.5
2017-10-11T14:05:03.166Z,15.3
2017-10-11T14:10:02.793Z,15.5
2017-10-11T14:15:02.400Z,15.5
2017-10-11T14:20:03.076Z,15.5
2017-10-11T14:25:02.662Z,15.5
2017-10-11T14:30:03.143Z,15.5
2017-10-11T14:35:02.706Z,15.5
2017-10-11T14:40:03.339Z,15.3
2017-10-11T14:45:02.871Z,15.3
2017-10-11T14:50:02.426Z,15.1
2017-10-11T14:55:02.842Z,15.1
2017-10-11T15:00:03.182Z,15.1
2017-10-11T15:05:02.629Z,15.1
2017-10-11T15:10:03.171Z,15.1
2017-10-11T15:15:02.567Z,15.1
2017-10-11T15:20:03.131Z,15.1
2017-10-11T15:25:02.696Z,15.1
2017-10-11T15:30:03.090Z,15.1
2017-10-11T15:35:02.757Z,15.1
2017-10-11T15:40:03.133Z,15.1
2017-10-11T15:45:02.543Z,15.1
2017-10-11T15:50:02.992Z,15.1
2017-10-11T15:55:02.552Z,15.1
2017-10-11T16:00:03.020Z,15.0
2017-10-11T16:05:02.479Z,14.8
2017-10-11T16:10:03.123Z,14.8
2017-10-11T16:15:02.560Z,14.8
2017-10-11T16:20:03.194Z,14.8
2017-10-11T16:25:02.797Z,14.6
2017-10-11T16:30:03.294Z,14.6
2017-10-11T16:35:02.710Z,14.6
2017-10-11T16:40:03.259Z,14.6
2017-10-11T16:45:02.668Z,14.6
2017-10-11T16:50:03.149Z,14.6
2017-10-11T16:55:02.701Z,14.5
2017-10-11T17:00:03.091Z,14.5
2017-10-11T17:05:02.653Z,14.5
2017-10-11T17:10:03.078Z,14.6
2017-10-11T17:15:02.489Z,14.5
2017-10-11T17:20:03.075Z,14.5
2017-10-11T17:25:02.753Z,14.5
2017-10-11T17:30:03.314Z,14.5
2017-10-11T17:35:02.653Z,14.3
2017-10-11T17:40:03.241Z,14.3
2017-10-11T17:45:02.625Z,14.3
2017-10-11T17:50:03.206Z,14.3
2017-10-11T17:55:02.606Z,14.3
2017-10-11T18:00:03.152Z,14.3
2017-10-11T18:05:02.538Z,14.3
2017-10-11T18:10:03.155Z,14.3
2017-10-11T18:15:02.701Z,14.3
2017-10-11T18:20:03.150Z,14.3
2017-10-11T18:25:02.761Z,14.3
2017-10-11T18:30:03.238Z,14.3
2017-10-11T18:35:02.731Z,14.3
2017-10-11T18:40:03.355Z,14.3
2017-10-11T18:45:03.070Z,14.1
2017-10-11T18:50:02.540Z,14.1
2017-10-11T18:55:03.215Z,14.0
2017-10-11T19:00:02.681Z,14.0
2017-10-11T19:05:03.265Z,14.0
2017-10-11T19:10:02.857Z,14.0
2017-10-11T19:15:03.387Z,14.0
2017-10-11T19:20:02.733Z,14.1
2017-10-11T19:25:02.417Z,14.1
2017-10-11T19:30:02.907Z,14.0
2017-10-11T19:35:03.533Z,14.0
2017-10-11T19:40:02.934Z,14.1
2017-10-11T19:45:03.302Z,14.1
2017-10-11T19:50:02.906Z,14.1
2017-10-11T19:55:02.488Z,14.1
2017-10-11T20:00:03.185Z,14.3
2017-10-11T20:05:02.768Z,14.3
2017-10-11T20:10:02.391Z,14.3
2017-10-11T20:15:02.794Z,14.1
2017-10-11T20:20:03.321Z,14.1
2017-10-11T20:25:02.855Z,14.1
2017-10-11T20:30:02.515Z,14.1
2017-10-11T20:35:02.889Z,14.1
2017-10-11T20:40:02.464Z,14.3
2017-10-11T20:45:02.931Z,14.3
2017-10-11T20:50:02.386Z,14.5
2017-10-11T20:55:02.977Z,14.6
2017-10-11T21:00:02.541Z,14.6
2017-10-11T21:05:02.929Z,14.6
2017-10-11T21:10:02.513Z,14.6
2017-10-11T21:15:03.140Z,14.6
2017-10-11T21:20:02.719Z,14.6
2017-10-11T21:25:03.091Z,14.8
2017-10-11T21:30:02.571Z,14.8
2017-10-11T21:35:03.105Z,14.8
2017-10-11T21:40:02.524Z,15.1
2017-10-11T21:45:03.158Z,15.0
2017-10-11T21:50:02.693Z,15.1
2017-10-11T21:55:03.097Z,15.1
2017-10-11T22:00:02.597Z,15.1
2017-10-11T22:05:03.098Z,15.1
2017-10-11T22:10:02.531Z,15.1
2017-10-11T22:15:03.064Z,15.3
2017-10-11T22:20:02.605Z,15.3
2017-10-11T22:25:02.955Z,15.3
2017-10-11T22:30:02.552Z,15.1
2017-10-11T22:35:03.073Z,15.3
2017-10-11T22:40:02.599Z,15.3
2017-10-11T22:45:03.252Z,15.3
2017-10-11T22:50:02.655Z,15.5
2017-10-11T22:55:03.271Z,15.5
2017-10-11T23:00:03.545Z,15.5
2017-10-11T23:05:02.634Z,15.3
2017-10-11T23:10:03.187Z,15.3
2017-10-11T23:15:02.717Z,15.3
2017-10-11T23:20:03.083Z,15.3
2017-10-11T23:25:02.546Z,15.1
2017-10-11T23:30:03.206Z,15.3
2017-10-11T23:35:02.550Z,15.5
2017-10-11T23:40:03.072Z,15.5
2017-10-11T23:45:02.611Z,15.1
2017-10-11T23:50:03.041Z,14.5
2017-10-11T23:55:03.505Z,14.6
